sensor_id;sensor_type;location;lat;lon;timestamp;pressure;altitude;pressure_sealevel;temperature;humidity
43161;BME280;40968;52.342;5.528;2022-11-20T00:02:16;101319.75;;;-1.52;68.64
43161;BME280;40968;52.342;5.528;2022-11-20T00:04:42;101445.69;;;-0.80;68.71
43161;BME280;40968;52.342;5.528;2022-11-20T00:07:10;101429.97;;;-0.83;69.21
43161;BME280;40968;52.342;5.528;2022-11-20T00:09:37;101295.44;;;-1.64;69.14
43161;BME280;40968;52.342;5.528;2022-11-20T00:12:04;101423.09;;;-0.90;68.22
43161;BME280;40968;52.342;5.528;2022-11-20T00:14:30;101448.50;;;-0.91;69.51
43161;BME280;40968;52.342;5.528;2022-11-20T00:16:57;101240.06;;;-2.08;69.96
43161;BME280;40968;52.342;5.528;2022-11-20T00:19:24;101261.75;;;-1.94;68.77
43161;BME280;40968;52.342;5.528;2022-11-20T00:21:51;101299.09;;;-1.75;67.98
43161;BME280;40968;52.342;5.528;2022-11-20T00:24:20;101180.38;;;-2.56;68.21
43161;BME280;40968;52.342;5.528;2022-11-20T00:26:46;101439.13;;;-1.06;68.81
43161;BME280;40968;52.342;5.528;2022-11-20T00:29:13;101193.44;;;-2.53;69.26
43161;BME280;40968;52.342;5.528;2022-11-20T00:31:40;101402.75;;;-1.34;71.09
43161;BME280;40968;52.342;5.528;2022-11-20T00:34:06;101431.25;;;-1.09;70.12
43161;BME280;40968;52.342;5.528;2022-11-20T00:36:33;101431.25;;;-1.09;71.15
43161;BME280;40968;52.342;5.528;2022-11-20T00:39:00;101428.69;;;-1.12;69.78
43161;BME280;40968;52.342;5.528;2022-11-20T00:41:29;101427.81;;;-1.11;71.47
43161;BME280;40968;52.342;5.528;2022-11-20T00:43:56;101428.75;;;-1.15;69.33
43161;BME280;40968;52.342;5.528;2022-11-20T00:46:24;101272.75;;;-2.29;69.01
43161;BME280;40968;52.342;5.528;2022-11-20T00:48:51;101153.75;;;-2.91;69.17
43161;BME280;40968;52.342;5.528;2022-11-20T00:51:20;101432.47;;;-1.28;69.93
43161;BME280;40968;52.342;5.528;2022-11-20T00:53:47;101397.81;;;-1.55;70.49
43161;BME280;40968;52.342;5.528;2022-11-20T00:56:16;101434.16;;;-1.24;72.60
43161;BME280;40968;52.342;5.528;2022-11-20T00:58:45;101441.13;;;-1.23;71.22
43161;BME280;40968;52.342;5.528;2022-11-20T01:01:13;101342.09;;;-1.79;70.09
43161;BME280;40968;52.342;5.528;2022-11-20T01:03:42;101371.66;;;-1.64;69.01
43161;BME280;40968;52.342;5.528;2022-11-20T01:06:10;101367.31;;;-1.67;71.47
43161;BME280;40968;52.342;5.528;2022-11-20T01:08:38;101323.03;;;-1.93;71.77
43161;BME280;40968;52.342;5.528;2022-11-20T01:11:07;101421.97;;;-1.31;71.27
43161;BME280;40968;52.342;5.528;2022-11-20T01:13:34;101338.66;;;-1.84;71.14
43161;BME280;40968;52.342;5.528;2022-11-20T01:16:08;101354.13;;;-1.65;70.91
43161;BME280;40968;52.342;5.528;2022-11-20T01:18:35;101314.28;;;-1.95;71.46
43161;BME280;40968;52.342;5.528;2022-11-20T01:21:03;101350.81;;;-1.77;71.96
43161;BME280;40968;52.342;5.528;2022-11-20T01:23:31;101394.94;;;-1.40;71.14
43161;BME280;40968;52.342;5.528;2022-11-20T01:26:00;101395.88;;;-1.44;70.34
43161;BME280;40968;52.342;5.528;2022-11-20T01:28:28;101321.16;;;-1.87;70.12
43161;BME280;40968;52.342;5.528;2022-11-20T01:30:55;101383.56;;;-1.42;73.29
43161;BME280;40968;52.342;5.528;2022-11-20T01:33:23;101379.16;;;-1.40;73.14
43161;BME280;40968;52.342;5.528;2022-11-20T01:35:50;101342.75;;;-1.64;70.89
43161;BME280;40968;52.342;5.528;2022-11-20T01:38:17;101229.19;;;-2.43;70.19
43161;BME280;40968;52.342;5.528;2022-11-20T01:40:45;101343.03;;;-1.83;69.25
43161;BME280;40968;52.342;5.528;2022-11-20T01:43:14;101384.72;;;-1.60;71.48
43161;BME280;40968;52.342;5.528;2022-11-20T01:46:13;101264.88;;;-2.31;71.92
43161;BME280;40968;52.342;5.528;2022-11-20T01:48:49;101269.22;;;-2.25;72.31
43161;BME280;40968;52.342;5.528;2022-11-20T01:51:21;101364.56;;;-1.59;70.95
43161;BME280;40968;52.342;5.528;2022-11-20T01:53:51;101318.72;;;-1.97;70.44
43161;BME280;40968;52.342;5.528;2022-11-20T01:56:19;101373.47;;;-1.70;70.86
43161;BME280;40968;52.342;5.528;2022-11-20T01:58:49;101377.91;;;-1.73;71.00
43161;BME280;40968;52.342;5.528;2022-11-20T02:01:18;101137.47;;;-3.18;70.46
43161;BME280;40968;52.342;5.528;2022-11-20T02:03:46;101323.28;;;-2.12;71.20
43161;BME280;40968;52.342;5.528;2022-11-20T02:06:16;101328.50;;;-2.09;71.81
43161;BME280;40968;52.342;5.528;2022-11-20T02:08:45;101278.16;;;-2.42;70.99
43161;BME280;40968;52.342;5.528;2022-11-20T02:11:12;101302.44;;;-2.24;73.22
43161;BME280;40968;52.342;5.528;2022-11-20T02:13:39;101360.56;;;-1.85;71.62
43161;BME280;40968;52.342;5.528;2022-11-20T02:16:16;101363.25;;;-1.88;71.48
43161;BME280;40968;52.342;5.528;2022-11-20T02:18:47;101306.00;;;-2.28;72.42
43161;BME280;40968;52.342;5.528;2022-11-20T02:21:33;101364.97;;;-1.87;72.53
43161;BME280;40968;52.342;5.528;2022-11-20T02:24:05;101305.97;;;-2.25;72.39
43161;BME280;40968;52.342;5.528;2022-11-20T02:26:33;101365.03;;;-1.92;70.87
43161;BME280;40968;52.342;5.528;2022-11-20T02:29:02;101364.25;;;-1.98;70.97
43161;BME280;40968;52.342;5.528;2022-11-20T02:31:29;101314.81;;;-2.33;71.45
43161;BME280;40968;52.342;5.528;2022-11-20T02:33:56;101341.78;;;-2.23;71.68
43161;BME280;40968;52.342;5.528;2022-11-20T02:36:24;101013.91;;;-4.33;71.34
43161;BME280;40968;52.342;5.528;2022-11-20T02:38:52;101268.09;;;-2.74;71.79
43161;BME280;40968;52.342;5.528;2022-11-20T02:41:20;101084.84;;;-3.74;73.31
43161;BME280;40968;52.342;5.528;2022-11-20T02:43:47;101344.41;;;-2.20;72.15
43161;BME280;40968;52.342;5.528;2022-11-20T02:46:14;101298.41;;;-2.50;72.44
43161;BME280;40968;52.342;5.528;2022-11-20T02:48:40;101231.72;;;-3.04;70.52
43161;BME280;40968;52.342;5.528;2022-11-20T02:51:07;101016.50;;;-4.31;70.41
43161;BME280;40968;52.342;5.528;2022-11-20T02:53:33;101363.59;;;-2.14;73.15
43161;BME280;40968;52.342;5.528;2022-11-20T02:56:00;101287.06;;;-2.52;72.54
43161;BME280;40968;52.342;5.528;2022-11-20T02:58:28;101360.09;;;-2.13;72.97
43161;BME280;40968;52.342;5.528;2022-11-20T03:00:55;101346.91;;;-2.10;73.15
43161;BME280;40968;52.342;5.528;2022-11-20T03:03:21;101097.84;;;-3.64;72.50
43161;BME280;40968;52.342;5.528;2022-11-20T03:05:48;101074.34;;;-3.74;71.74
43161;BME280;40968;52.342;5.528;2022-11-20T03:08:14;101352.28;;;-2.20;70.74
43161;BME280;40968;52.342;5.528;2022-11-20T03:10:41;101064.91;;;-3.87;71.05
43161;BME280;40968;52.342;5.528;2022-11-20T03:13:08;101340.13;;;-2.25;71.16
43161;BME280;40968;52.342;5.528;2022-11-20T03:15:36;101336.66;;;-2.32;70.38
43161;BME280;40968;52.342;5.528;2022-11-20T03:18:04;101281.97;;;-2.64;71.00
43161;BME280;40968;52.342;5.528;2022-11-20T03:20:32;101330.59;;;-2.37;71.53
43161;BME280;40968;52.342;5.528;2022-11-20T03:22:59;101261.09;;;-2.74;73.25
43161;BME280;40968;52.342;5.528;2022-11-20T03:25:25;101199.44;;;-3.12;72.92
43161;BME280;40968;52.342;5.528;2022-11-20T03:27:52;101330.50;;;-2.29;73.19
43161;BME280;40968;52.342;5.528;2022-11-20T03:30:19;101328.78;;;-2.29;73.65
43161;BME280;40968;52.342;5.528;2022-11-20T03:32:47;101208.16;;;-3.08;72.81
43161;BME280;40968;52.342;5.528;2022-11-20T03:35:13;101323.56;;;-2.34;71.51
43161;BME280;40968;52.342;5.528;2022-11-20T03:37:40;101275.84;;;-2.65;72.65
43161;BME280;40968;52.342;5.528;2022-11-20T03:40:07;101323.63;;;-2.37;72.91
43161;BME280;40968;52.342;5.528;2022-11-20T03:42:34;101183.72;;;-3.12;73.41
43161;BME280;40968;52.342;5.528;2022-11-20T03:45:14;101260.09;;;-2.65;72.23
43161;BME280;40968;52.342;5.528;2022-11-20T03:47:41;101301.00;;;-2.47;70.98
43161;BME280;40968;52.342;5.528;2022-11-20T03:50:11;101252.41;;;-2.79;71.40
43161;BME280;40968;52.342;5.528;2022-11-20T03:52:38;101296.66;;;-2.51;73.03
43161;BME280;40968;52.342;5.528;2022-11-20T03:55:06;101226.38;;;-2.97;73.02
43161;BME280;40968;52.342;5.528;2022-11-20T03:57:32;101294.00;;;-2.48;73.15
43161;BME280;40968;52.342;5.528;2022-11-20T03:59:59;101241.00;;;-2.76;74.63
43161;BME280;40968;52.342;5.528;2022-11-20T04:02:26;101254.09;;;-2.75;72.24
43161;BME280;40968;52.342;5.528;2022-11-20T04:04:52;100923.59;;;-4.74;72.03
43161;BME280;40968;52.342;5.528;2022-11-20T04:07:20;101282.09;;;-2.77;70.99
43161;BME280;40968;52.342;5.528;2022-11-20T04:09:47;101296.00;;;-2.69;72.14
43161;BME280;40968;52.342;5.528;2022-11-20T04:12:13;101269.06;;;-2.85;74.55
43161;BME280;40968;52.342;5.528;2022-11-20T04:14:40;101178.69;;;-3.27;73.29
43161;BME280;40968;52.342;5.528;2022-11-20T04:17:07;101271.56;;;-2.72;72.42
43161;BME280;40968;52.342;5.528;2022-11-20T04:19:33;101232.53;;;-3.02;71.44
43161;BME280;40968;52.342;5.528;2022-11-20T04:22:00;101229.94;;;-3.02;72.82
43161;BME280;40968;52.342;5.528;2022-11-20T04:24:28;100954.03;;;-4.66;72.83
43161;BME280;40968;52.342;5.528;2022-11-20T04:26:55;101296.00;;;-2.69;71.75
43161;BME280;40968;52.342;5.528;2022-11-20T04:29:21;101276.00;;;-2.80;71.74
43161;BME280;40968;52.342;5.528;2022-11-20T04:31:48;101180.56;;;-3.40;71.87
43161;BME280;40968;52.342;5.528;2022-11-20T04:34:15;101230.25;;;-3.29;73.93
43161;BME280;40968;52.342;5.528;2022-11-20T04:36:41;101317.84;;;-2.67;73.70
43161;BME280;40968;52.342;5.528;2022-11-20T04:39:12;101176.22;;;-3.43;73.26
43161;BME280;40968;52.342;5.528;2022-11-20T04:41:40;101296.00;;;-2.69;73.55
43161;BME280;40968;52.342;5.528;2022-11-20T04:44:07;101298.69;;;-2.73;72.89
43161;BME280;40968;52.342;5.528;2022-11-20T04:46:35;101207.47;;;-3.24;73.95
43161;BME280;40968;52.342;5.528;2022-11-20T04:49:02;101299.47;;;-2.67;74.21
43161;BME280;40968;52.342;5.528;2022-11-20T04:51:29;101002.63;;;-4.43;72.81
43161;BME280;40968;52.342;5.528;2022-11-20T04:53:55;101257.94;;;-3.04;75.27
43161;BME280;40968;52.342;5.528;2022-11-20T04:56:22;101238.53;;;-2.90;75.93
43161;BME280;40968;52.342;5.528;2022-11-20T04:58:50;101297.59;;;-2.55;74.83
43161;BME280;40968;52.342;5.528;2022-11-20T05:01:19;101287.13;;;-2.58;75.04
43161;BME280;40968;52.342;5.528;2022-11-20T05:03:46;101031.09;;;-4.10;74.62
43161;BME280;40968;52.342;5.528;2022-11-20T05:06:14;101280.16;;;-2.59;74.30
43161;BME280;40968;52.342;5.528;2022-11-20T05:08:41;101158.78;;;-3.48;74.72
43161;BME280;40968;52.342;5.528;2022-11-20T05:11:09;100998.13;;;-4.28;74.08
43161;BME280;40968;52.342;5.528;2022-11-20T05:13:36;101204.88;;;-3.26;73.64
43161;BME280;40968;52.342;5.528;2022-11-20T05:16:06;101271.53;;;-2.69;74.81
43161;BME280;40968;52.342;5.528;2022-11-20T05:18:34;101269.84;;;-2.75;73.05
43161;BME280;40968;52.342;5.528;2022-11-20T05:21:00;101267.28;;;-2.81;72.01
43161;BME280;40968;52.342;5.528;2022-11-20T05:23:29;101156.28;;;-3.58;72.50
43161;BME280;40968;52.342;5.528;2022-11-20T05:25:56;101273.50;;;-2.88;72.29
43161;BME280;40968;52.342;5.528;2022-11-20T05:28:24;101263.91;;;-2.89;72.07
43161;BME280;40968;52.342;5.528;2022-11-20T05:30:50;101254.31;;;-2.95;72.24
43161;BME280;40968;52.342;5.528;2022-11-20T05:33:19;101042.63;;;-4.28;73.63
43161;BME280;40968;52.342;5.528;2022-11-20T05:35:45;101067.66;;;-4.01;72.83
43161;BME280;40968;52.342;5.528;2022-11-20T05:38:13;101223.97;;;-3.13;72.85
43161;BME280;40968;52.342;5.528;2022-11-20T05:40:40;100873.50;;;-5.21;74.15
43161;BME280;40968;52.342;5.528;2022-11-20T05:43:06;101249.03;;;-2.90;75.12
43161;BME280;40968;52.342;5.528;2022-11-20T05:45:33;100978.44;;;-4.63;74.70
43161;BME280;40968;52.342;5.528;2022-11-20T05:48:00;101032.13;;;-4.24;73.79
43161;BME280;40968;52.342;5.528;2022-11-20T05:50:28;100973.13;;;-4.54;74.33
43161;BME280;40968;52.342;5.528;2022-11-20T05:52:57;101116.25;;;-3.69;74.26
43161;BME280;40968;52.342;5.528;2022-11-20T05:55:24;101243.84;;;-2.96;73.68
43161;BME280;40968;52.342;5.528;2022-11-20T05:57:52;101254.34;;;-2.96;74.56
43161;BME280;40968;52.342;5.528;2022-11-20T06:00:19;101251.78;;;-3.01;73.57
43161;BME280;40968;52.342;5.528;2022-11-20T06:02:45;101250.13;;;-3.08;73.09
43161;BME280;40968;52.342;5.528;2022-11-20T06:05:12;101249.25;;;-3.09;75.04
43161;BME280;40968;52.342;5.528;2022-11-20T06:07:40;100864.13;;;-5.47;74.22
43161;BME280;40968;52.342;5.528;2022-11-20T06:10:08;101267.63;;;-3.09;74.68
43161;BME280;40968;52.342;5.528;2022-11-20T06:12:34;101083.56;;;-4.21;74.54
43161;BME280;40968;52.342;5.528;2022-11-20T06:15:01;101266.75;;;-3.11;74.49
43161;BME280;40968;52.342;5.528;2022-11-20T06:17:28;101236.59;;;-3.52;75.02
43161;BME280;40968;52.342;5.528;2022-11-20T06:19:54;101270.25;;;-3.12;73.68
43161;BME280;40968;52.342;5.528;2022-11-20T06:22:21;101272.03;;;-3.14;74.33
43161;BME280;40968;52.342;5.528;2022-11-20T06:24:49;100995.09;;;-4.75;73.66
43161;BME280;40968;52.342;5.528;2022-11-20T06:27:16;101210.47;;;-3.60;73.17
43161;BME280;40968;52.342;5.528;2022-11-20T06:29:42;101273.88;;;-3.22;72.88
43161;BME280;40968;52.342;5.528;2022-11-20T06:32:09;100891.19;;;-5.57;72.94
43161;BME280;40968;52.342;5.528;2022-11-20T06:34:36;101220.13;;;-3.67;72.98
43161;BME280;40968;52.342;5.528;2022-11-20T06:37:03;101272.13;;;-3.23;74.39
43161;BME280;40968;52.342;5.528;2022-11-20T06:39:29;101261.66;;;-3.23;74.12
43161;BME280;40968;52.342;5.528;2022-11-20T06:41:57;101239.09;;;-3.41;72.84
43161;BME280;40968;52.342;5.528;2022-11-20T06:44:24;101259.94;;;-3.26;74.68
43161;BME280;40968;52.342;5.528;2022-11-20T06:46:51;101214.72;;;-3.48;75.27
43161;BME280;40968;52.342;5.528;2022-11-20T06:49:17;101263.31;;;-3.16;75.21
43161;BME280;40968;52.342;5.528;2022-11-20T06:51:44;101268.56;;;-3.16;74.01
43161;BME280;40968;52.342;5.528;2022-11-20T06:54:11;101263.31;;;-3.16;74.89
43161;BME280;40968;52.342;5.528;2022-11-20T06:56:37;101265.91;;;-3.14;75.00
43161;BME280;40968;52.342;5.528;2022-11-20T06:59:06;101258.94;;;-3.15;74.77
43161;BME280;40968;52.342;5.528;2022-11-20T07:01:33;101166.88;;;-3.70;75.32
43161;BME280;40968;52.342;5.528;2022-11-20T07:04:00;101259.81;;;-3.15;74.41
43161;BME280;40968;52.342;5.528;2022-11-20T07:06:27;101256.31;;;-3.17;74.16
43161;BME280;40968;52.342;5.528;2022-11-20T07:08:54;101275.59;;;-3.18;74.04
43161;BME280;40968;52.342;5.528;2022-11-20T07:11:20;101255.44;;;-3.16;75.10
43161;BME280;40968;52.342;5.528;2022-11-20T07:13:47;101193.75;;;-3.48;75.08
43161;BME280;40968;52.342;5.528;2022-11-20T07:16:15;101204.16;;;-3.43;74.43
43161;BME280;40968;52.342;5.528;2022-11-20T07:18:42;101103.44;;;-3.98;73.41
43161;BME280;40968;52.342;5.528;2022-11-20T07:21:10;101201.63;;;-3.53;72.66
43161;BME280;40968;52.342;5.528;2022-11-20T07:23:37;101239.91;;;-3.35;72.96
43161;BME280;40968;52.342;5.528;2022-11-20T07:26:04;101239.94;;;-3.38;74.78
43161;BME280;40968;52.342;5.528;2022-11-20T07:28:31;101120.94;;;-4.04;74.83
43161;BME280;40968;52.342;5.528;2022-11-20T07:30:58;101213.03;;;-3.57;74.05
43161;BME280;40968;52.342;5.528;2022-11-20T07:33:26;100772.34;;;-6.11;73.85
43161;BME280;40968;52.342;5.528;2022-11-20T07:35:53;101121.00;;;-4.10;73.71
43161;BME280;40968;52.342;5.528;2022-11-20T07:38:20;101183.47;;;-3.70;73.83
43161;BME280;40968;52.342;5.528;2022-11-20T07:40:46;101219.00;;;-3.41;74.22
43161;BME280;40968;52.342;5.528;2022-11-20T07:43:14;101180.88;;;-3.71;73.83
43161;BME280;40968;52.342;5.528;2022-11-20T07:45:40;101227.78;;;-3.45;74.71
43161;BME280;40968;52.342;5.528;2022-11-20T07:48:07;101223.38;;;-3.41;75.18
43161;BME280;40968;52.342;5.528;2022-11-20T07:50:35;101016.75;;;-4.62;74.75
43161;BME280;40968;52.342;5.528;2022-11-20T07:53:02;101216.34;;;-3.38;74.63
43161;BME280;40968;52.342;5.528;2022-11-20T07:55:30;101155.63;;;-3.78;74.47
43161;BME280;40968;52.342;5.528;2022-11-20T07:57:57;101231.09;;;-3.29;75.59
43161;BME280;40968;52.342;5.528;2022-11-20T08:00:24;100943.78;;;-4.90;75.18
43161;BME280;40968;52.342;5.528;2022-11-20T08:02:51;101185.06;;;-3.53;74.75
43161;BME280;40968;52.342;5.528;2022-11-20T08:05:18;101068.69;;;-4.16;74.80
43161;BME280;40968;52.342;5.528;2022-11-20T08:07:46;101096.44;;;-4.00;75.20
43161;BME280;40968;52.342;5.528;2022-11-20T08:10:14;101164.94;;;-3.53;75.37
43161;BME280;40968;52.342;5.528;2022-11-20T08:12:45;101228.22;;;-3.06;75.44
43161;BME280;40968;52.342;5.528;2022-11-20T08:15:30;101225.53;;;-2.98;75.71
43161;BME280;40968;52.342;5.528;2022-11-20T08:18:01;101154.25;;;-3.34;75.01
43161;BME280;40968;52.342;5.528;2022-11-20T08:20:28;101171.69;;;-3.31;74.70
43161;BME280;40968;52.342;5.528;2022-11-20T08:22:59;101154.22;;;-3.29;75.11
43161;BME280;40968;52.342;5.528;2022-11-20T08:25:27;101176.72;;;-3.10;74.69
43161;BME280;40968;52.342;5.528;2022-11-20T08:27:57;100924.25;;;-4.54;75.43
43161;BME280;40968;52.342;5.528;2022-11-20T08:30:23;101212.06;;;-2.72;75.79
43161;BME280;40968;52.342;5.528;2022-11-20T08:32:50;101163.47;;;-3.01;75.47
43161;BME280;40968;52.342;5.528;2022-11-20T08:35:17;101190.94;;;-2.59;75.29
43161;BME280;40968;52.342;5.528;2022-11-20T08:37:45;101196.13;;;-2.56;74.71
43161;BME280;40968;52.342;5.528;2022-11-20T08:40:14;101137.13;;;-2.91;75.14
43161;BME280;40968;52.342;5.528;2022-11-20T08:42:46;101192.47;;;-2.46;75.33
43161;BME280;40968;52.342;5.528;2022-11-20T08:45:13;101091.81;;;-3.03;75.31
43161;BME280;40968;52.342;5.528;2022-11-20T08:47:40;101082.97;;;-2.95;75.36
43161;BME280;40968;52.342;5.528;2022-11-20T08:50:08;100841.44;;;-4.55;75.04
43161;BME280;40968;52.342;5.528;2022-11-20T08:52:34;101192.25;;;-2.30;74.95
43161;BME280;40968;52.342;5.528;2022-11-20T08:55:01;101073.44;;;-3.00;75.11
43161;BME280;40968;52.342;5.528;2022-11-20T08:57:31;101141.00;;;-2.56;75.56
43161;BME280;40968;52.342;5.528;2022-11-20T08:59:57;101208.59;;;-2.13;75.58
43161;BME280;40968;52.342;5.528;2022-11-20T09:02:24;101202.31;;;-2.03;76.10
43161;BME280;40968;52.342;5.528;2022-11-20T09:04:51;101110.25;;;-2.48;74.99
43161;BME280;40968;52.342;5.528;2022-11-20T09:07:18;101179.63;;;-2.07;75.28
43161;BME280;40968;52.342;5.528;2022-11-20T09:09:45;101079.00;;;-2.63;74.81
43161;BME280;40968;52.342;5.528;2022-11-20T09:12:12;101195.06;;;-1.88;74.81
43161;BME280;40968;52.342;5.528;2022-11-20T09:14:40;101185.38;;;-1.86;75.22
43161;BME280;40968;52.342;5.528;2022-11-20T09:17:06;101105.50;;;-2.24;75.07
43161;BME280;40968;52.342;5.528;2022-11-20T09:19:33;101174.75;;;-1.77;75.13
43161;BME280;40968;52.342;5.528;2022-11-20T09:22:00;101017.81;;;-2.65;75.21
43161;BME280;40968;52.342;5.528;2022-11-20T09:24:27;101170.16;;;-1.65;75.20
43161;BME280;40968;52.342;5.528;2022-11-20T09:26:54;100939.56;;;-2.93;75.22
43161;BME280;40968;52.342;5.528;2022-11-20T09:29:20;101100.59;;;-1.94;74.58
43161;BME280;40968;52.342;5.528;2022-11-20T09:31:48;101032.88;;;-2.25;75.63
43161;BME280;40968;52.342;5.528;2022-11-20T09:34:15;101141.03;;;-1.55;75.29
43161;BME280;40968;52.342;5.528;2022-11-20T09:36:42;101160.84;;;-1.37;75.46
43161;BME280;40968;52.342;5.528;2022-11-20T09:39:09;100922.69;;;-2.78;74.80
43161;BME280;40968;52.342;5.528;2022-11-20T09:41:48;101162.41;;;-1.26;75.57
43161;BME280;40968;52.342;5.528;2022-11-20T09:44:31;101138.94;;;-1.37;74.88
43161;BME280;40968;52.342;5.528;2022-11-20T09:47:07;101171.03;;;-1.20;74.46
43161;BME280;40968;52.342;5.528;2022-11-20T09:49:46;100807.22;;;-3.22;73.55
43161;BME280;40968;52.342;5.528;2022-11-20T09:52:24;101069.41;;;-1.66;74.04
43161;BME280;40968;52.342;5.528;2022-11-20T09:54:54;101148.16;;;-1.16;73.72
43161;BME280;40968;52.342;5.528;2022-11-20T09:57:23;101081.28;;;-1.46;74.19
43161;BME280;40968;52.342;5.528;2022-11-20T09:59:54;101134.91;;;-1.10;73.89
43161;BME280;40968;52.342;5.528;2022-11-20T10:02:28;101137.44;;;-1.07;74.11
43161;BME280;40968;52.342;5.528;2022-11-20T10:04:59;100969.31;;;-1.97;74.21
43161;BME280;40968;52.342;5.528;2022-11-20T10:07:30;100953.78;;;-2.08;74.67
43161;BME280;40968;52.342;5.528;2022-11-20T10:10:00;100848.03;;;-2.60;74.62
43161;BME280;40968;52.342;5.528;2022-11-20T10:12:34;100801.34;;;-2.90;74.39
43161;BME280;40968;52.342;5.528;2022-11-20T10:15:17;101038.22;;;-1.41;74.35
43161;BME280;40968;52.342;5.528;2022-11-20T10:18:05;101123.63;;;-0.77;74.60
43161;BME280;40968;52.342;5.528;2022-11-20T10:20:43;101069.84;;;-1.03;74.52
43161;BME280;40968;52.342;5.528;2022-11-20T10:23:26;101039.34;;;-1.12;74.68
43161;BME280;40968;52.342;5.528;2022-11-20T10:26:01;101107.72;;;-0.71;74.21
43161;BME280;40968;52.342;5.528;2022-11-20T10:28:48;101075.41;;;-0.78;74.96
43161;BME280;40968;52.342;5.528;2022-11-20T10:31:28;101106.34;;;-0.50;74.69
43161;BME280;40968;52.342;5.528;2022-11-20T10:34:02;101081.66;;;-0.82;74.01
43161;BME280;40968;52.342;5.528;2022-11-20T10:36:34;101117.59;;;-0.43;73.91
43161;BME280;40968;52.342;5.528;2022-11-20T10:39:10;101033.22;;;-0.75;74.21
43161;BME280;40968;52.342;5.528;2022-11-20T10:41:41;101075.44;;;-0.42;74.07
43161;BME280;40968;52.342;5.528;2022-11-20T10:44:12;100994.75;;;-0.80;73.73
43161;BME280;40968;52.342;5.528;2022-11-20T10:47:00;100864.19;;;-1.57;73.72
43161;BME280;40968;52.342;5.528;2022-11-20T10:49:30;100973.69;;;-0.80;73.71
43161;BME280;40968;52.342;5.528;2022-11-20T10:52:04;100989.78;;;-0.57;73.74
43161;BME280;40968;52.342;5.528;2022-11-20T10:54:39;100734.78;;;-2.03;73.79
43161;BME280;40968;52.342;5.528;2022-11-20T10:57:15;101069.81;;;0.07;74.28
43161;BME280;40968;52.342;5.528;2022-11-20T10:59:58;101059.00;;;0.16;73.71
43161;BME280;40968;52.342;5.528;2022-11-20T11:02:32;100997.50;;;-0.16;73.63
43161;BME280;40968;52.342;5.528;2022-11-20T11:05:08;101057.00;;;0.24;73.74
43161;BME280;40968;52.342;5.528;2022-11-20T11:07:39;101050.75;;;0.28;73.84
43161;BME280;40968;52.342;5.528;2022-11-20T11:10:14;100911.28;;;-0.42;73.96
43161;BME280;40968;52.342;5.528;2022-11-20T11:12:43;101036.44;;;0.37;73.66
43161;BME280;40968;52.342;5.528;2022-11-20T11:15:14;101036.34;;;0.40;74.12
43161;BME280;40968;52.342;5.528;2022-11-20T11:17:50;100933.53;;;-0.21;73.77
43161;BME280;40968;52.342;5.528;2022-11-20T11:20:20;100926.72;;;-0.28;73.86
43161;BME280;40968;52.342;5.528;2022-11-20T11:22:49;100968.25;;;-0.07;74.28
43161;BME280;40968;52.342;5.528;2022-11-20T11:25:21;100993.00;;;0.19;74.31
43161;BME280;40968;52.342;5.528;2022-11-20T11:27:49;100969.72;;;0.04;74.43
43161;BME280;40968;52.342;5.528;2022-11-20T11:30:18;101022.22;;;0.43;74.65
43161;BME280;40968;52.342;5.528;2022-11-20T11:32:46;100734.56;;;-1.24;74.93
43161;BME280;40968;52.342;5.528;2022-11-20T11:35:23;101014.13;;;0.49;75.83
43161;BME280;40968;52.342;5.528;2022-11-20T11:37:52;101007.78;;;0.55;75.52
43161;BME280;40968;52.342;5.528;2022-11-20T11:40:21;101004.16;;;0.59;75.85
43161;BME280;40968;52.342;5.528;2022-11-20T11:42:54;101001.50;;;0.60;76.01
43161;BME280;40968;52.342;5.528;2022-11-20T11:45:23;100962.44;;;0.43;75.71
43161;BME280;40968;52.342;5.528;2022-11-20T11:47:50;100941.63;;;0.32;75.54
43161;BME280;40968;52.342;5.528;2022-11-20T11:50:22;101000.38;;;0.68;76.20
43161;BME280;40968;52.342;5.528;2022-11-20T11:52:56;100805.81;;;-0.38;76.24
43161;BME280;40968;52.342;5.528;2022-11-20T11:55:31;100980.97;;;0.70;76.15
43161;BME280;40968;52.342;5.528;2022-11-20T11:58:08;100700.31;;;-0.91;76.19
43161;BME280;40968;52.342;5.528;2022-11-20T12:00:38;100929.69;;;0.51;76.92
43161;BME280;40968;52.342;5.528;2022-11-20T12:03:12;100969.03;;;0.85;76.54
43161;BME280;40968;52.342;5.528;2022-11-20T12:05:43;100861.63;;;0.33;76.52
43161;BME280;40968;52.342;5.528;2022-11-20T12:08:15;100577.09;;;-1.37;76.64
43161;BME280;40968;52.342;5.528;2022-11-20T12:10:48;100858.81;;;0.40;76.66
43161;BME280;40968;52.342;5.528;2022-11-20T12:16:11;100756.50;;;-0.04;76.90
43161;BME280;40968;52.342;5.528;2022-11-20T12:18:39;100920.03;;;1.05;76.85
43161;BME280;40968;52.342;5.528;2022-11-20T12:21:17;100919.03;;;1.09;77.25
43161;BME280;40968;52.342;5.528;2022-11-20T12:23:56;100922.47;;;1.11;77.13
43161;BME280;40968;52.342;5.528;2022-11-20T12:26:40;100874.03;;;0.85;77.18
43161;BME280;40968;52.342;5.528;2022-11-20T12:29:14;100927.63;;;1.14;77.06
43161;BME280;40968;52.342;5.528;2022-11-20T12:32:03;100805.31;;;0.36;77.59
43161;BME280;40968;52.342;5.528;2022-11-20T12:34:44;100814.25;;;0.59;77.66
43161;BME280;40968;52.342;5.528;2022-11-20T12:37:28;100928.97;;;1.27;77.68
43161;BME280;40968;52.342;5.528;2022-11-20T12:39:58;100743.00;;;0.33;77.54
43161;BME280;40968;52.342;5.528;2022-11-20T12:42:39;100905.03;;;1.32;78.15
43161;BME280;40968;52.342;5.528;2022-11-20T12:45:57;100703.88;;;0.21;78.42
43161;BME280;40968;52.342;5.528;2022-11-20T12:48:41;100757.59;;;0.44;78.60
43161;BME280;40968;52.342;5.528;2022-11-20T12:51:30;100869.25;;;1.23;79.03
43161;BME280;40968;52.342;5.528;2022-11-20T12:57:03;100495.88;;;-0.89;78.83
43161;BME280;40968;52.342;5.528;2022-11-20T12:59:48;100877.44;;;1.41;79.10
43161;BME280;40968;52.342;5.528;2022-11-20T13:02:25;100871.13;;;1.45;79.02
43161;BME280;40968;52.342;5.528;2022-11-20T13:05:08;100787.47;;;0.96;79.64
43161;BME280;40968;52.342;5.528;2022-11-20T13:07:40;100864.06;;;1.45;79.39
43161;BME280;40968;52.342;5.528;2022-11-20T13:10:15;100852.53;;;1.48;79.63